createdAt,value
2018-05-02T00:00:54.175Z,92.37
2018-05-02T00:03:22.140Z,92.88
2018-05-02T00:05:50.110Z,94.87
2018-05-02T00:08:18.080Z,92.72
2018-05-02T00:10:46.046Z,91.65
2018-05-02T00:13:14.016Z,94.68
2018-05-02T00:15:41.884Z,93.20
2018-05-02T00:18:09.782Z,92.45
2018-05-02T00:20:38.509Z,94.62
2018-05-02T00:26:06.694Z,93.35
2018-05-02T00:28:34.607Z,93.95
2018-05-02T00:31:02.565Z,92.15
2018-05-02T00:33:30.428Z,92.95
2018-05-02T00:35:58.294Z,90.05
2018-05-02T00:38:26.264Z,93.72
2018-05-02T00:40:54.131Z,92.55
2018-05-02T00:43:22.098Z,94.70
2018-05-02T00:45:49.967Z,92.82
2018-05-02T00:48:17.830Z,92.12
2018-05-02T00:50:45.699Z,92.20
2018-05-02T00:53:13.567Z,93.18
2018-05-02T00:55:41.429Z,90.68
2018-05-02T00:58:09.396Z,92.22
2018-05-02T01:00:37.262Z,89.53
2018-05-02T01:03:05.234Z,92.88
2018-05-02T01:05:33.204Z,90.97
2018-05-02T01:08:01.167Z,90.62
2018-05-02T01:10:29.037Z,90.72
2018-05-02T01:12:56.902Z,92.20
2018-05-02T01:15:24.767Z,90.40
2018-05-02T01:17:52.701Z,93.93
2018-05-02T01:20:20.703Z,90.55
2018-05-02T01:22:48.570Z,89.60
2018-05-02T01:25:16.438Z,94.65
2018-05-02T01:27:44.364Z,90.43
2018-05-02T01:30:12.271Z,95.82
2018-05-02T01:32:40.241Z,90.53
2018-05-02T01:35:08.207Z,93.25
2018-05-02T01:37:36.074Z,91.57
2018-05-02T01:40:03.894Z,90.57
2018-05-02T01:42:31.884Z,90.75
2018-05-02T01:44:59.779Z,90.60
2018-05-02T01:47:27.642Z,90.68
2018-05-02T01:49:55.507Z,92.07
2018-05-02T01:52:24.193Z,91.18
2018-05-02T01:54:52.163Z,88.00
2018-05-02T01:57:20.134Z,90.45
2018-05-02T01:59:48.816Z,87.65
2018-05-02T02:02:16.784Z,88.60
2018-05-02T02:04:44.756Z,87.47
2018-05-02T02:07:12.619Z,90.70
2018-05-02T02:09:40.484Z,87.22
2018-05-02T02:12:08.455Z,88.57
2018-05-02T02:14:36.422Z,88.72
2018-05-02T02:17:04.394Z,86.82
2018-05-02T02:19:32.362Z,88.05
2018-05-02T02:22:00.122Z,88.15
2018-05-02T02:24:27.991Z,86.25
2018-05-02T02:26:55.956Z,87.78
2018-05-02T02:29:24.027Z,88.40
2018-05-02T02:31:51.974Z,86.05
2018-05-02T02:34:19.862Z,91.28
2018-05-02T02:36:47.735Z,87.57
2018-05-02T02:39:15.702Z,88.30
2018-05-02T02:41:43.563Z,87.07
2018-05-02T02:44:11.535Z,89.03
2018-05-02T02:46:39.499Z,87.75
2018-05-02T02:49:07.366Z,87.45
2018-05-02T02:51:35.232Z,85.15
2018-05-02T02:54:03.134Z,83.05
2018-05-02T02:56:31.786Z,83.85
2018-05-02T02:58:59.607Z,84.70
2018-05-02T03:01:27.520Z,85.35
2018-05-02T03:03:55.389Z,85.30
2018-05-02T03:06:23.350Z,85.07
2018-05-02T03:08:51.326Z,86.00
2018-05-02T03:11:19.185Z,86.65
2018-05-02T03:13:47.051Z,85.82
2018-05-02T03:16:14.916Z,87.85
2018-05-02T03:18:42.785Z,87.55
2018-05-02T03:21:10.651Z,86.75
2018-05-02T03:23:38.516Z,85.72
2018-05-02T03:26:06.347Z,86.55
2018-05-02T03:28:34.248Z,84.95
2018-05-02T03:31:02.190Z,86.90
2018-05-02T03:33:30.081Z,86.07
2018-05-02T03:35:58.051Z,88.12
2018-05-02T03:38:25.917Z,87.85
2018-05-02T03:40:53.784Z,87.88
2018-05-02T03:43:21.651Z,91.78
2018-05-02T03:45:49.514Z,89.20
2018-05-02T03:48:17.333Z,91.12
2018-05-02T03:50:45.246Z,87.55
2018-05-02T03:53:13.076Z,90.15
2018-05-02T03:55:40.982Z,85.53
2018-05-02T03:58:08.819Z,88.05
2018-05-02T04:00:48.488Z,86.57
2018-05-02T04:03:28.235Z,87.53
2018-05-02T04:09:00.009Z,87.55
2018-05-02T04:11:27.978Z,87.75
2018-05-02T04:13:55.950Z,88.85
2018-05-02T04:16:24.633Z,89.07
2018-05-02T04:18:52.500Z,85.70
2018-05-02T04:21:20.364Z,89.72
2018-05-02T04:23:48.229Z,96.93
2018-05-02T04:26:16.296Z,92.43
2018-05-02T04:28:44.273Z,89.10
2018-05-02T04:31:12.340Z,89.22
2018-05-02T04:33:40.210Z,86.57
2018-05-02T04:36:08.178Z,88.50
2018-05-02T04:38:36.144Z,89.10
2018-05-02T04:41:04.089Z,95.18
2018-05-02T04:43:31.952Z,100.63
2018-05-02T04:45:59.802Z,90.18
2018-05-02T04:48:27.714Z,91.43
2018-05-02T04:50:55.577Z,87.43
2018-05-02T04:53:23.420Z,101.97
2018-05-02T04:55:51.311Z,104.53
2018-05-02T04:58:19.182Z,100.38
2018-05-02T05:00:47.157Z,97.15
2018-05-02T05:03:15.835Z,98.22
2018-05-02T05:05:43.697Z,95.55
2018-05-02T05:08:11.565Z,96.87
2018-05-02T05:10:39.429Z,101.80
2018-05-02T05:13:07.295Z,98.15
2018-05-02T05:15:35.264Z,92.85
2018-05-02T05:18:03.229Z,98.10
2018-05-02T05:20:31.198Z,98.37
2018-05-02T05:22:59.033Z,101.60
2018-05-02T05:25:26.935Z,104.90
2018-05-02T05:27:54.796Z,105.35
2018-05-02T05:30:22.664Z,110.05
2018-05-02T05:32:50.735Z,106.78
2018-05-02T05:35:18.610Z,111.72
2018-05-02T05:37:47.285Z,103.80
2018-05-02T05:40:15.159Z,105.53
2018-05-02T05:42:43.125Z,104.60
2018-05-02T05:45:10.987Z,108.55
2018-05-02T05:47:38.855Z,100.68
2018-05-02T05:50:06.823Z,104.72
2018-05-02T05:52:34.788Z,104.38
2018-05-02T05:55:02.659Z,101.95
2018-05-02T05:57:30.521Z,106.05
2018-05-02T05:59:58.496Z,102.90
2018-05-02T06:02:26.560Z,104.82
2018-05-02T06:04:54.427Z,104.90
2018-05-02T06:07:22.296Z,103.93
2018-05-02T06:09:50.162Z,102.38
2018-05-02T06:12:18.131Z,102.90
2018-05-02T06:14:45.994Z,102.28
2018-05-02T06:17:13.966Z,101.30
2018-05-02T06:19:42.463Z,103.55
2018-05-02T06:22:10.414Z,104.72
2018-05-02T06:24:38.277Z,104.47
2018-05-02T06:27:06.145Z,104.05
2018-05-02T06:29:34.931Z,107.68
2018-05-02T06:32:02.805Z,105.70
2018-05-02T06:34:30.974Z,107.70
2018-05-02T06:36:58.840Z,103.38
2018-05-02T06:39:26.770Z,105.35
2018-05-02T06:41:54.599Z,101.80
2018-05-02T06:44:23.301Z,103.68
2018-05-02T06:46:51.082Z,101.35
2018-05-02T06:49:18.995Z,109.43
2018-05-02T06:51:46.825Z,102.32
2018-05-02T06:54:14.835Z,102.68
2018-05-02T06:56:42.687Z,96.85
2018-05-02T06:59:10.657Z,98.75
2018-05-02T07:01:38.522Z,95.32
2018-05-02T07:04:06.364Z,94.25
2018-05-02T07:06:34.258Z,94.65
2018-05-02T07:09:02.194Z,92.93
2018-05-02T07:11:30.090Z,91.12
2018-05-02T07:13:58.057Z,90.32
2018-05-02T07:16:26.028Z,92.82
2018-05-02T07:18:54.100Z,93.05
2018-05-02T07:21:21.964Z,91.20
2018-05-02T07:23:49.831Z,92.88
2018-05-02T07:26:17.700Z,91.30
2018-05-02T07:28:45.578Z,94.57
2018-05-02T07:31:13.429Z,91.45
2018-05-02T07:33:41.293Z,91.22
2018-05-02T07:36:09.389Z,94.30
2018-05-02T07:38:38.053Z,90.00
2018-05-02T07:41:06.093Z,96.20
2018-05-02T07:43:33.988Z,90.00
2018-05-02T07:46:01.964Z,90.55
2018-05-02T07:48:29.825Z,94.43
2018-05-02T07:50:57.796Z,90.10
2018-05-02T07:53:25.665Z,90.28
2018-05-02T07:55:53.528Z,89.82
2018-05-02T07:58:21.491Z,89.65
2018-05-02T08:00:49.562Z,87.55
2018-05-02T08:03:17.403Z,93.87
2018-05-02T08:05:45.297Z,88.50
2018-05-02T08:08:13.264Z,91.87
2018-05-02T08:10:41.129Z,88.53
2018-05-02T08:13:08.996Z,91.35
2018-05-02T08:15:36.863Z,89.47
2018-05-02T08:18:04.697Z,89.40
2018-05-02T08:20:32.593Z,89.13
2018-05-02T08:23:00.462Z,90.82
2018-05-02T08:25:28.326Z,92.75
2018-05-02T08:27:56.194Z,91.68
2018-05-02T08:30:24.060Z,95.85
2018-05-02T08:32:52.031Z,90.18
2018-05-02T08:35:19.793Z,94.60
2018-05-02T08:37:47.862Z,92.40
2018-05-02T08:40:15.939Z,97.55
2018-05-02T08:42:43.797Z,95.75
2018-05-02T08:45:11.680Z,97.12
2018-05-02T08:47:39.631Z,96.65
2018-05-02T08:50:07.600Z,97.00
2018-05-02T08:52:35.471Z,98.32
2018-05-02T08:55:03.337Z,97.05
2018-05-02T08:57:31.251Z,95.82
2018-05-02T08:59:59.065Z,92.90
2018-05-02T09:02:26.930Z,98.65
2018-05-02T09:04:54.798Z,96.68
2018-05-02T09:07:22.663Z,95.28
2018-05-02T09:09:50.707Z,99.03
2018-05-02T09:12:18.600Z,100.55
2018-05-02T09:14:46.387Z,96.18
2018-05-02T09:17:14.202Z,94.97
2018-05-02T09:19:42.095Z,95.32
2018-05-02T09:22:09.961Z,100.18
2018-05-02T09:24:38.032Z,96.50
2018-05-02T09:27:06.115Z,95.75
2018-05-02T09:29:34.994Z,98.50
2018-05-02T09:32:03.680Z,95.32
2018-05-02T09:34:31.616Z,92.28
2018-05-02T09:36:59.514Z,90.97
2018-05-02T09:39:27.384Z,91.63
2018-05-02T09:41:55.453Z,90.45
2018-05-02T09:44:23.319Z,90.15
2018-05-02T09:46:51.184Z,90.18
2018-05-02T09:49:19.055Z,90.20
2018-05-02T09:51:47.745Z,90.32
2018-05-02T09:54:15.601Z,94.70
2018-05-02T09:56:43.544Z,91.65
2018-05-02T09:59:11.435Z,94.87
2018-05-02T10:01:39.301Z,91.20
2018-05-02T10:04:07.174Z,89.60
2018-05-02T10:06:35.037Z,90.22
2018-05-02T10:09:02.854Z,89.55
2018-05-02T10:11:30.871Z,94.20
2018-05-02T10:14:00.133Z,90.00
2018-05-02T10:16:27.925Z,92.57
2018-05-02T10:18:55.798Z,90.45
2018-05-02T10:21:25.080Z,91.45
2018-05-02T10:23:53.175Z,94.53
2018-05-02T10:26:21.112Z,94.25
2018-05-02T10:28:48.905Z,95.07
2018-05-02T10:31:16.816Z,92.65
2018-05-02T10:33:44.577Z,90.38
2018-05-02T10:36:12.513Z,93.60
2018-05-02T10:38:40.323Z,88.03
2018-05-02T10:41:08.197Z,89.32
2018-05-02T10:43:36.168Z,87.28
2018-05-02T10:46:04.271Z,88.95
2018-05-02T10:48:32.241Z,89.97
2018-05-02T10:51:02.937Z,93.07
2018-05-02T10:53:30.737Z,89.13
2018-05-02T10:55:58.787Z,90.50
2018-05-02T10:58:26.780Z,89.05
2018-05-02T11:00:54.753Z,86.15
2018-05-02T11:03:23.430Z,88.03
2018-05-02T11:05:51.398Z,86.90
2018-05-02T11:08:19.494Z,90.68
2018-05-02T11:10:48.273Z,85.43
2018-05-02T11:13:16.078Z,83.87
2018-05-02T11:15:43.896Z,84.28
2018-05-02T11:18:12.574Z,85.00
2018-05-02T11:20:40.540Z,79.10
2018-05-02T11:23:08.513Z,81.35
2018-05-02T11:25:36.270Z,79.80
2018-05-02T11:28:04.138Z,78.60
2018-05-02T11:30:32.109Z,81.63
2018-05-02T11:32:59.975Z,79.07
2018-05-02T11:35:27.840Z,76.65
2018-05-02T11:37:55.911Z,80.38
2018-05-02T11:40:23.786Z,79.62
2018-05-02T11:42:51.644Z,75.07
2018-05-02T11:45:19.513Z,80.32
2018-05-02T11:47:47.376Z,76.10
2018-05-02T11:50:15.355Z,79.60
2018-05-02T11:52:43.216Z,76.80
2018-05-02T11:55:11.076Z,76.87
2018-05-02T11:57:39.054Z,77.75
2018-05-02T12:00:06.911Z,79.75
2018-05-02T12:02:35.155Z,77.68
2018-05-02T12:05:03.875Z,75.72
2018-05-02T12:07:31.750Z,74.78
2018-05-02T12:09:59.604Z,79.55
2018-05-02T12:12:27.584Z,80.53
2018-05-02T12:14:55.438Z,76.70
2018-05-02T12:17:23.306Z,80.20
2018-05-02T12:19:51.173Z,79.18
2018-05-02T12:22:19.044Z,80.62
2018-05-02T12:24:47.008Z,75.97
2018-05-02T12:27:15.080Z,83.10
2018-05-02T12:29:42.942Z,78.40
2018-05-02T12:32:10.808Z,82.37
2018-05-02T12:34:38.677Z,78.80
2018-05-02T12:37:06.643Z,80.03
2018-05-02T12:39:34.512Z,79.95
2018-05-02T12:42:02.378Z,78.12
2018-05-02T12:44:30.241Z,78.28
2018-05-02T12:46:58.210Z,78.32
2018-05-02T12:49:26.079Z,79.80
2018-05-02T12:51:53.824Z,76.03
2018-05-02T12:54:21.587Z,78.30
2018-05-02T12:56:49.469Z,77.78
2018-05-02T12:59:17.345Z,80.07
2018-05-02T13:01:46.025Z,79.12
2018-05-02T13:04:13.993Z,81.12
2018-05-02T13:06:41.838Z,79.65
2018-05-02T13:09:09.629Z,78.22
2018-05-02T13:11:37.544Z,79.65
2018-05-02T13:14:05.458Z,78.45
2018-05-02T13:16:33.320Z,76.72
2018-05-02T13:19:01.392Z,79.20
2018-05-02T13:21:29.261Z,76.50
2018-05-02T13:23:57.125Z,78.75
2018-05-02T13:26:25.808Z,78.45
2018-05-02T13:28:53.675Z,74.82
2018-05-02T13:31:21.541Z,80.40
2018-05-02T13:33:49.407Z,76.30
2018-05-02T13:36:17.273Z,80.72
2018-05-02T13:38:45.242Z,78.95
2018-05-02T13:41:13.216Z,79.68
2018-05-02T13:43:41.895Z,76.05
2018-05-02T13:46:09.763Z,80.65
2018-05-02T13:48:37.733Z,80.47
2018-05-02T13:51:07.133Z,79.87
2018-05-02T13:53:35.203Z,74.45
2018-05-02T13:56:03.031Z,77.15
2018-05-02T13:58:30.941Z,75.30
2018-05-02T14:00:58.976Z,78.20
2018-05-02T14:03:26.836Z,79.50
2018-05-02T14:05:54.635Z,76.85
2018-05-02T14:08:22.584Z,79.10
2018-05-02T14:10:50.427Z,78.25
2018-05-02T14:13:18.339Z,80.55
2018-05-02T14:15:46.238Z,80.93
2018-05-02T14:18:14.891Z,79.95
2018-05-02T14:20:42.822Z,79.40
2018-05-02T14:23:10.727Z,79.85
2018-05-02T14:25:38.590Z,77.07
2018-05-02T14:28:06.561Z,78.30
2018-05-02T14:30:34.525Z,79.07
2018-05-02T14:33:02.372Z,77.78
2018-05-02T14:35:30.258Z,77.57
2018-05-02T14:37:58.226Z,80.20
2018-05-02T14:40:26.093Z,77.90
2018-05-02T14:42:53.961Z,79.32
2018-05-02T14:45:21.852Z,78.90
2018-05-02T14:47:50.513Z,75.15
2018-05-02T14:50:18.439Z,77.68
2018-05-02T14:52:46.344Z,79.10
2018-05-02T14:55:14.620Z,79.30
2018-05-02T14:57:42.485Z,78.25
2018-05-02T15:00:10.359Z,77.72
2018-05-02T15:02:38.224Z,76.55
2018-05-02T15:05:06.038Z,78.50
2018-05-02T15:07:34.055Z,73.62
2018-05-02T15:10:01.877Z,79.43
2018-05-02T15:12:29.785Z,77.00
2018-05-02T15:14:57.655Z,77.03
2018-05-02T15:17:25.520Z,76.50
2018-05-02T15:19:53.388Z,76.62
2018-05-02T15:22:21.356Z,77.85
2018-05-02T15:24:49.225Z,75.80
2018-05-02T15:27:17.084Z,80.72
2018-05-02T15:29:44.967Z,76.00
2018-05-02T15:32:13.635Z,80.50
2018-05-02T15:34:41.502Z,76.40
2018-05-02T15:37:09.371Z,77.50
2018-05-02T15:39:37.235Z,78.65
2018-05-02T15:42:05.101Z,76.15
2018-05-02T15:44:32.968Z,77.15
2018-05-02T15:47:00.938Z,75.57
2018-05-02T15:49:28.804Z,78.07
2018-05-02T15:51:56.730Z,74.45
2018-05-02T15:54:24.612Z,80.50
2018-05-02T15:56:52.812Z,78.35
2018-05-02T15:59:20.772Z,79.75
2018-05-02T16:01:48.650Z,77.62
2018-05-02T16:04:16.537Z,79.40
2018-05-02T16:06:45.194Z,76.25
2018-05-02T16:09:13.269Z,78.10
2018-05-02T16:11:41.132Z,78.07
2018-05-02T16:14:09.001Z,79.55
2018-05-02T16:16:36.869Z,76.32
2018-05-02T16:19:04.878Z,75.68
2018-05-02T16:21:33.623Z,79.35
2018-05-02T16:24:01.591Z,75.95
2018-05-02T16:26:29.457Z,75.85
2018-05-02T16:28:57.382Z,78.47
2018-05-02T16:31:25.291Z,74.05
2018-05-02T16:33:53.153Z,78.03
2018-05-02T16:36:21.129Z,78.70
2018-05-02T16:38:48.993Z,77.43
2018-05-02T16:41:16.857Z,79.37
2018-05-02T16:43:44.724Z,79.00
2018-05-02T16:46:12.591Z,79.22
2018-05-02T16:48:40.458Z,81.15
2018-05-02T16:51:08.321Z,77.93
2018-05-02T16:53:36.098Z,78.87
2018-05-02T16:56:03.916Z,80.20
2018-05-02T16:58:31.926Z,77.25
2018-05-02T17:00:59.951Z,78.65
2018-05-02T17:03:27.863Z,76.15
2018-05-02T17:05:55.730Z,78.40
2018-05-02T17:08:23.589Z,77.78
2018-05-02T17:10:51.463Z,83.95
2018-05-02T17:13:19.276Z,81.40
2018-05-02T17:15:47.186Z,78.43
2018-05-02T17:18:15.055Z,78.45
2018-05-02T17:20:42.957Z,79.25
2018-05-02T17:23:12.289Z,81.45
2018-05-02T17:25:40.192Z,79.43
2018-05-02T17:28:08.068Z,76.30
2018-05-02T17:30:36.128Z,79.87
2018-05-02T17:33:05.548Z,76.03
2018-05-02T17:35:33.512Z,78.10
2018-05-02T17:38:01.318Z,76.65
2018-05-02T17:40:29.637Z,78.62
2018-05-02T17:42:57.504Z,79.40
2018-05-02T17:45:25.370Z,79.18
2018-05-02T17:47:53.440Z,77.40
2018-05-02T17:50:21.308Z,79.82
2018-05-02T17:52:49.465Z,80.12
2018-05-02T17:55:17.349Z,81.63
2018-05-02T17:57:45.215Z,80.87
2018-05-02T18:00:13.081Z,81.55
2018-05-02T18:02:40.949Z,81.10
2018-05-02T18:05:08.913Z,78.90
2018-05-02T18:07:36.944Z,79.95
2018-05-02T18:10:04.855Z,76.62
2018-05-02T18:12:32.714Z,78.32
2018-05-02T18:15:00.584Z,78.40
2018-05-02T18:17:28.453Z,78.50
2018-05-02T18:19:56.316Z,81.05
2018-05-02T18:22:24.183Z,81.55
2018-05-02T18:24:52.003Z,81.20
2018-05-02T18:27:19.915Z,80.60
2018-05-02T18:29:47.777Z,79.05
2018-05-02T18:32:15.649Z,80.72
2018-05-02T18:34:43.512Z,80.85
2018-05-02T18:37:11.478Z,80.20
2018-05-02T18:39:39.346Z,80.43
2018-05-02T18:42:07.213Z,79.10
2018-05-02T18:44:35.082Z,79.03
2018-05-02T18:47:02.976Z,79.43
2018-05-02T18:49:31.628Z,79.07
2018-05-02T18:51:59.495Z,79.20
2018-05-02T18:54:27.360Z,83.93
2018-05-02T18:56:55.228Z,80.25
2018-05-02T18:59:23.196Z,81.45
2018-05-02T19:01:51.061Z,76.90
2018-05-02T19:04:19.034Z,81.60
2018-05-02T19:06:46.896Z,81.10
2018-05-02T19:09:14.969Z,81.60
2018-05-02T19:11:42.843Z,79.93
2018-05-02T19:14:10.808Z,81.90
2018-05-02T19:16:38.671Z,79.30
2018-05-02T19:19:12.268Z,80.25
2018-05-02T19:21:40.133Z,78.05
2018-05-02T19:24:08.001Z,79.43
2018-05-02T19:26:36.693Z,80.60
2018-05-02T19:29:04.552Z,79.65
2018-05-02T19:31:38.154Z,79.57
2018-05-02T19:34:06.083Z,78.80
2018-05-02T19:36:33.992Z,81.47
2018-05-02T19:39:01.854Z,79.97
2018-05-02T19:41:35.151Z,80.57
2018-05-02T19:44:04.855Z,78.82
2018-05-02T19:46:32.725Z,82.15
2018-05-02T19:49:00.589Z,79.70
2018-05-02T19:51:34.189Z,79.70
2018-05-02T19:54:02.159Z,79.25
2018-05-02T19:56:30.037Z,80.10
2018-05-02T19:58:57.960Z,78.22
2018-05-02T20:01:31.546Z,81.55
2018-05-02T20:03:59.461Z,81.32
2018-05-02T20:06:27.445Z,76.18
2018-05-02T20:09:00.926Z,79.20
2018-05-02T20:11:34.528Z,80.18
2018-05-02T20:14:08.201Z,79.62
2018-05-02T20:16:36.100Z,78.75
2018-05-02T20:19:03.960Z,81.00
2018-05-02T20:21:31.827Z,87.47
2018-05-02T20:23:59.795Z,80.43
2018-05-02T20:26:27.664Z,80.22
2018-05-02T20:28:55.589Z,84.03
2018-05-02T20:31:23.498Z,83.00
2018-05-02T20:33:51.362Z,78.97
2018-05-02T20:36:19.228Z,80.68
2018-05-02T20:38:47.054Z,78.85
2018-05-02T20:41:14.993Z,84.72
2018-05-02T20:43:43.646Z,80.25
2018-05-02T20:46:11.514Z,82.15
2018-05-02T20:48:39.377Z,80.22
2018-05-02T20:51:07.245Z,79.57
2018-05-02T20:53:35.110Z,81.03
2018-05-02T20:56:02.977Z,81.43
2018-05-02T20:58:30.843Z,80.80
2018-05-02T21:00:58.913Z,80.57
2018-05-02T21:03:26.783Z,92.20
2018-05-02T21:05:54.706Z,83.05
2018-05-02T21:08:22.620Z,83.55
2018-05-02T21:10:50.482Z,80.30
2018-05-02T21:13:18.555Z,82.60
2018-05-02T21:15:48.420Z,81.70
2018-05-02T21:18:16.332Z,85.43
2018-05-02T21:20:44.198Z,84.95
2018-05-02T21:23:12.063Z,85.50
2018-05-02T21:25:39.930Z,83.55
2018-05-02T21:28:07.905Z,84.10
2018-05-02T21:30:35.764Z,85.28
2018-05-02T21:33:03.733Z,82.55
2018-05-02T21:35:31.600Z,82.03
2018-05-02T21:37:59.468Z,82.07
2018-05-02T21:40:27.330Z,86.75
2018-05-02T21:42:55.199Z,82.75
2018-05-02T21:45:23.074Z,88.03
2018-05-02T21:47:51.027Z,84.20
2018-05-02T21:50:18.902Z,88.30
2018-05-02T21:52:46.968Z,88.03
2018-05-02T21:55:14.785Z,83.35
2018-05-02T21:57:42.701Z,87.22
2018-05-02T22:00:10.575Z,85.60
2018-05-02T22:02:38.437Z,85.57
2018-05-02T22:05:06.405Z,84.40
2018-05-02T22:07:34.269Z,86.07
2018-05-02T22:10:02.085Z,84.60
2018-05-02T22:12:30.002Z,83.25
2018-05-02T22:14:58.173Z,83.70
2018-05-02T22:17:26.042Z,84.53
2018-05-02T22:19:53.907Z,82.53
2018-05-02T22:22:21.775Z,85.75
2018-05-02T22:24:49.742Z,84.15
2018-05-02T22:27:17.610Z,87.47
2018-05-02T22:29:45.472Z,88.95
2018-05-02T22:32:13.543Z,90.75
2018-05-02T22:34:41.410Z,86.78
2018-05-02T22:37:09.278Z,87.68
2018-05-02T22:39:37.142Z,85.07
2018-05-02T22:42:05.008Z,85.12
2018-05-02T22:44:32.901Z,84.82
2018-05-02T22:47:01.558Z,85.78
2018-05-02T22:49:29.426Z,85.55
2018-05-02T22:51:57.398Z,84.78
2018-05-02T22:54:25.363Z,86.97
2018-05-02T22:56:53.229Z,81.68
2018-05-02T22:59:21.097Z,86.12
2018-05-02T23:01:48.964Z,84.03
2018-05-02T23:04:16.886Z,86.50
2018-05-02T23:06:44.795Z,82.85
2018-05-02T23:09:12.763Z,86.57
2018-05-02T23:11:40.630Z,82.30
2018-05-02T23:14:08.466Z,84.18
2018-05-02T23:16:36.367Z,82.05
2018-05-02T23:19:04.229Z,85.10
2018-05-02T23:21:32.203Z,84.75
2018-05-02T23:24:00.062Z,84.97
2018-05-02T23:26:27.928Z,82.90
2018-05-02T23:28:55.898Z,82.62
2018-05-02T23:31:23.764Z,84.57
2018-05-02T23:33:51.630Z,80.35
2018-05-02T23:36:19.496Z,84.15
2018-05-02T23:38:47.362Z,82.07
2018-05-02T23:41:15.290Z,87.40
2018-05-02T23:43:43.204Z,83.25
2018-05-02T23:46:11.067Z,83.50
2018-05-02T23:48:38.928Z,80.05
2018-05-02T23:51:08.306Z,79.10
2018-05-02T23:53:36.105Z,81.10
2018-05-02T23:56:03.961Z,80.87
2018-05-02T23:58:31.827Z,79.78
